^^
Datos históricos de la estación: Murcia-Puente Tocinos
Diario Informe para Noviembre 27, 2019 Unidades:  Ambas    Ingés   Métrico
Diario Semanal Mensual Anual
  Máxima: Mínima: Promedio:
Temperatura: 72.7 °F /  22.6 °C 52 °F /  11.1 °C 61.2 °F /  16.2 °C
Punto de rocio: 53.8 °F /  12.1 °C 43 °F /  6.1 °C 48.2 °F /  9 °C
Humedad: 90% 38% 66%
Velocidad viento: 12.3mph /  19.8km/h - 4.5mph /  7.3km/h
Racha viento: 21.3mph /  34.3km/h - -
Viento- - SSO
Presión: 29.9 in /  1014.0 hPa 29.8 in /  1008.6 hPa -
Precipitación: 0 in /  0.0 mm    
 
 
Tabla de datos para Noviembre 27, 2019
Hora Temperatura Punto de rocio Presión Viento Velocidad viento Racha viento Humedad Intensidad lluvia(por hora) Nubes
00:04 56.7 °F /  13.7 °C 52 °F /  11.1 °C 29.8in /  1009.6hPa SSE 5.7mph /  9.1km/h 9mph /  14.5km/h 83.9% 0in /  0.0mm
00:09 56.5 °F /  13.6 °C 51.8 °F /  11 °C 29.8in /  1009.6hPa Sur 5.4mph /  8.7km/h 8mph /  12.9km/h 84.5% 0in /  0.0mm
00:14 56.3 °F /  13.5 °C 51.8 °F /  11 °C 29.8in /  1009.5hPa SSO 4.5mph /  7.2km/h 6mph /  9.7km/h 85% 0in /  0.0mm
00:19 56.3 °F /  13.5 °C 52.2 °F /  11.2 °C 29.8in /  1009.5hPa SO 4mph /  6.5km/h 3.5mph /  5.6km/h 85.9% 0in /  0.0mm
00:24 56.3 °F /  13.5 °C 52.2 °F /  11.2 °C 29.8in /  1009.7hPa SO 2.5mph /  4km/h 3mph /  4.8km/h 86% 0in /  0.0mm
00:29 56.3 °F /  13.5 °C 52.2 °F /  11.2 °C 29.8in /  1009.7hPa SO 1.8mph /  2.9km/h   86% 0in /  0.0mm
00:34 56.5 °F /  13.6 °C 52.3 °F /  11.3 °C 29.8in /  1009.7hPa SO 0.6mph /  0.9km/h 5.2mph /  8.4km/h 86% 0in /  0.0mm
00:39 56.5 °F /  13.6 °C 52.3 °F /  11.3 °C 29.8in /  1009.7hPa Calm   6.9mph /  11.1km/h 86% 0in /  0.0mm
00:44 56.3 °F /  13.5 °C 52.2 °F /  11.2 °C 29.8in /  1009.5hPa SSE 2.1mph /  3.3km/h 7mph /  11.3km/h 86% 0in /  0.0mm
00:49 56.3 °F /  13.5 °C 52.2 °F /  11.2 °C 29.8in /  1009.5hPa SSE 2.9mph /  4.7km/h 5mph /  8km/h 86% 0in /  0.0mm
00:54 56.3 °F /  13.5 °C 52.5 °F /  11.4 °C 29.8in /  1009.5hPa SO 2.5mph /  4.1km/h 5mph /  8km/h 87% 0in /  0.0mm
00:59 56.1 °F /  13.4 °C 52.3 °F /  11.3 °C 29.8in /  1009.5hPa SO 2.4mph /  3.9km/h 3.6mph /  5.8km/h 87% 0in /  0.0mm
01:04 56.1 °F /  13.4 °C 52.2 °F /  11.2 °C 29.8in /  1009.5hPa SO 1.9mph /  3.1km/h 4.6mph /  7.4km/h 87% 0in /  0.0mm
01:09 55.9 °F /  13.3 °C 52.2 °F /  11.2 °C 29.8in /  1009.6hPa SO 1.8mph /  2.9km/h 5mph /  8km/h 87.3% 0in /  0.0mm
01:14 56.1 °F /  13.4 °C 52.5 °F /  11.4 °C 29.8in /  1009.6hPa SSE 1.8mph /  2.9km/h 5.2mph /  8.4km/h 88% 0in /  0.0mm
01:19 56.1 °F /  13.4 °C 52.5 °F /  11.4 °C 29.8in /  1009.6hPa SE 1.8mph /  2.9km/h 5.9mph /  9.5km/h 88% 0in /  0.0mm
01:24 55.9 °F /  13.3 °C 52.3 °F /  11.3 °C 29.8in /  1009.6hPa SE 3mph /  4.8km/h 6mph /  9.7km/h 87.6% 0in /  0.0mm
01:29 55.8 °F /  13.2 °C 52.3 °F /  11.3 °C 29.8in /  1009.4hPa SSE 3.6mph /  5.8km/h 6.2mph /  10km/h 88% 0in /  0.0mm
01:34 55.6 °F /  13.1 °C 52.2 °F /  11.2 °C 29.8in /  1009.4hPa SE 3.9mph /  6.2km/h 6.9mph /  11.1km/h 88% 0in /  0.0mm
01:39 55.6 °F /  13.1 °C 52 °F /  11.1 °C 29.8in /  1009.4hPa SSE 4mph /  6.5km/h 8.1mph /  13km/h 88% 0in /  0.0mm
01:44 55.2 °F /  12.9 °C 51.8 °F /  11 °C 29.8in /  1009.3hPa SSE 4.5mph /  7.2km/h 8.5mph /  13.7km/h 88% 0in /  0.0mm
01:49 55 °F /  12.8 °C 51.6 °F /  10.9 °C 29.8in /  1009.3hPa SSE 4.7mph /  7.6km/h 9.2mph /  14.8km/h 88.4% 0in /  0.0mm
01:54 54.9 °F /  12.7 °C 51.6 °F /  10.9 °C 29.8in /  1009.3hPa Sur 5.5mph /  8.9km/h 9mph /  14.5km/h 89% 0in /  0.0mm
01:59 54.9 °F /  12.7 °C 51.6 °F /  10.9 °C 29.8in /  1009.2hPa Sur 5.9mph /  9.5km/h 9.2mph /  14.8km/h 89% 0in /  0.0mm
02:04 55 °F /  12.8 °C 51.8 °F /  11 °C 29.8in /  1009.2hPa Sur 6.3mph /  10.1km/h 10.4mph /  16.7km/h 88.6% 0in /  0.0mm
02:09 55.4 °F /  13 °C 52 °F /  11.1 °C 29.8in /  1009.2hPa SSO 6.4mph /  10.3km/h 10mph /  16.1km/h 88% 0in /  0.0mm
02:14 55.9 °F /  13.3 °C 52 °F /  11.1 °C 29.8in /  1009.0hPa SSO 6.1mph /  9.8km/h 9mph /  14.5km/h 87% 0in /  0.0mm
02:19 56.1 °F /  13.4 °C 52.2 °F /  11.2 °C 29.8in /  1009.0hPa SSO 5.9mph /  9.5km/h 7mph /  11.3km/h 86.6% 0in /  0.0mm
02:24 56.5 °F /  13.6 °C 52.3 °F /  11.3 °C 29.8in /  1009.1hPa SSO 4.3mph /  6.9km/h 6mph /  9.7km/h 85.9% 0in /  0.0mm
02:29 56.5 °F /  13.6 °C 52 °F /  11.1 °C 29.8in /  1009.1hPa ONO 3.6mph /  5.8km/h 5mph /  8km/h 85% 0in /  0.0mm
02:34 56.1 °F /  13.4 °C 51.4 °F /  10.8 °C 29.8in /  1009.1hPa NO 2.7mph /  4.4km/h 5.8mph /  9.3km/h 84% 0in /  0.0mm
02:39 55.6 °F /  13.1 °C 50.9 °F /  10.5 °C 29.8in /  1009.3hPa NO 2.4mph /  3.9km/h 6mph /  9.7km/h 84.5% 0in /  0.0mm
02:44 55 °F /  12.8 °C 50.9 °F /  10.5 °C 29.8in /  1009.3hPa ONO 2.4mph /  3.9km/h 4.6mph /  7.4km/h 85.5% 0in /  0.0mm
02:49 54.9 °F /  12.7 °C 50.9 °F /  10.5 °C 29.8in /  1009.3hPa ONO 2.4mph /  3.9km/h 5mph /  8km/h 86.3% 0in /  0.0mm
02:54 54.7 °F /  12.6 °C 50.7 °F /  10.4 °C 29.8in /  1009.3hPa Oeste 2.4mph /  3.9km/h 4.6mph /  7.4km/h 87% 0in /  0.0mm
02:59 54.3 °F /  12.4 °C 50.9 °F /  10.5 °C 29.8in /  1009.1hPa SO 2.4mph /  3.9km/h 5.8mph /  9.3km/h 87.9% 0in /  0.0mm
03:04 54.1 °F /  12.3 °C 50.7 °F /  10.4 °C 29.8in /  1009.1hPa SSE 2.7mph /  4.4km/h 6mph /  9.7km/h 88% 0in /  0.0mm
03:09 54.1 °F /  12.3 °C 50.7 °F /  10.4 °C 29.8in /  1009.3hPa SSE 2.9mph /  4.7km/h 6.2mph /  10km/h 88% 0in /  0.0mm
03:14 54 °F /  12.2 °C 50.5 °F /  10.3 °C 29.8in /  1009.3hPa SSE 3.4mph /  5.4km/h 6.2mph /  10km/h 88% 0in /  0.0mm
03:19 54 °F /  12.2 °C 50.5 °F /  10.3 °C 29.8in /  1009.3hPa Sur 3.6mph /  5.8km/h 6mph /  9.7km/h 88% 0in /  0.0mm
03:24 54 °F /  12.2 °C 50.5 °F /  10.3 °C 29.8in /  1009.3hPa Sur 3.9mph /  6.2km/h 6.9mph /  11.1km/h 88% 0in /  0.0mm
03:29 54 °F /  12.2 °C 50.5 °F /  10.3 °C 29.8in /  1009.0hPa Sur 4mph /  6.5km/h 7mph /  11.3km/h 88% 0in /  0.0mm
03:34 54 °F /  12.2 °C 50.4 °F /  10.2 °C 29.8in /  1009.0hPa SSO 3.7mph /  6km/h 8.1mph /  13km/h 87.2% 0in /  0.0mm
03:39 54 °F /  12.2 °C 50.5 °F /  10.3 °C 29.8in /  1009.1hPa SO 3.6mph /  5.8km/h 8mph /  12.9km/h 87.9% 0in /  0.0mm
03:44 54.3 °F /  12.4 °C 50.7 °F /  10.4 °C 29.8in /  1009.1hPa SO 4.7mph /  7.5km/h 7mph /  11.3km/h 87.7% 0in /  0.0mm
03:49 54.9 °F /  12.7 °C 51.1 °F /  10.6 °C 29.8in /  1009.1hPa SO 5.2mph /  8.4km/h 7mph /  11.3km/h 86.9% 0in /  0.0mm
03:54 55.2 °F /  12.9 °C 51.1 °F /  10.6 °C 29.8in /  1009.1hPa Oeste 4.6mph /  7.4km/h 6mph /  9.7km/h 85.6% 0in /  0.0mm
03:59 55.4 °F /  13 °C 50.7 °F /  10.4 °C 29.8in /  1009.0hPa ONO 4.3mph /  6.9km/h 6mph /  9.7km/h 84.2% 0in /  0.0mm
04:04 55.2 °F /  12.9 °C 50.5 °F /  10.3 °C 29.8in /  1009.0hPa ONO 2.6mph /  4.2km/h 4.3mph /  6.9km/h 84% 0in /  0.0mm
04:09 55.2 °F /  12.9 °C 50.5 °F /  10.3 °C 29.8in /  1009.0hPa SSO 2mph /  3.2km/h 5mph /  8km/h 84% 0in /  0.0mm
04:14 55 °F /  12.8 °C 50.4 °F /  10.2 °C 29.8in /  1008.7hPa SSO 2mph /  3.2km/h 5mph /  8km/h 84% 0in /  0.0mm
04:19 54.9 °F /  12.7 °C 50.4 °F /  10.2 °C 29.8in /  1008.7hPa SSO 2mph /  3.2km/h 3.5mph /  5.6km/h 84.6% 0in /  0.0mm
04:24 54.9 °F /  12.7 °C 50.4 °F /  10.2 °C 29.8in /  1008.7hPa SO 1.9mph /  3km/h 5.2mph /  8.4km/h 85% 0in /  0.0mm
04:29 54.1 °F /  12.3 °C 49.5 °F /  9.7 °C 29.8in /  1008.6hPa NNO 1.8mph /  2.9km/h 8.1mph /  13km/h 84.2% 0in /  0.0mm
04:34 53.2 °F /  11.8 °C 48.9 °F /  9.4 °C 29.8in /  1008.6hPa Oeste 3mph /  4.9km/h 8mph /  12.9km/h 85.2% 0in /  0.0mm
04:39 53.1 °F /  11.7 °C 49.3 °F /  9.6 °C 29.8in /  1008.6hPa OSO 3.6mph /  5.8km/h 5mph /  8km/h 86.7% 0in /  0.0mm
04:44 53.1 °F /  11.7 °C 49.5 °F /  9.7 °C 29.8in /  1008.6hPa SO 2.7mph /  4.4km/h 5mph /  8km/h 87.5% 0in /  0.0mm
04:49 53.1 °F /  11.7 °C 49.6 °F /  9.8 °C 29.8in /  1008.6hPa SE 2.4mph /  3.9km/h 6.2mph /  10km/h 87.9% 0in /  0.0mm
04:54 52.7 °F /  11.5 °C 49.1 °F /  9.5 °C 29.8in /  1008.6hPa Este 2.9mph /  4.6km/h 6.2mph /  10km/h 87.3% 0in /  0.0mm
04:59 52.5 °F /  11.4 °C 49.1 °F /  9.5 °C 29.8in /  1008.6hPa Este 3.1mph /  5km/h 6mph /  9.7km/h 88% 0in /  0.0mm
05:04 52.3 °F /  11.3 °C 49.1 °F /  9.5 °C 29.8in /  1008.6hPa Este 2.3mph /  3.7km/h 3mph /  4.8km/h 88.5% 0in /  0.0mm
05:09 52.3 °F /  11.3 °C 49.3 °F /  9.6 °C 29.8in /  1008.9hPa Este 2mph /  3.2km/h 2mph /  3.2km/h 89% 0in /  0.0mm
05:14 52.3 °F /  11.3 °C 49.3 °F /  9.6 °C 29.8in /  1008.9hPa Este 0.6mph /  1km/h   89% 0in /  0.0mm
05:19 52.3 °F /  11.3 °C 49.3 °F /  9.6 °C 29.8in /  1008.9hPa Calm   4.7mph /  7.6km/h 89% 0in /  0.0mm
05:24 52.5 °F /  11.4 °C 49.5 °F /  9.7 °C 29.8in /  1008.9hPa SE 1.4mph /  2.3km/h 5mph /  8km/h 89% 0in /  0.0mm
05:29 52.5 °F /  11.4 °C 49.6 °F /  9.8 °C 29.8in /  1008.8hPa SE 2mph /  3.2km/h 4mph /  6.4km/h 89.6% 0in /  0.0mm
05:34 52.5 °F /  11.4 °C 49.5 °F /  9.7 °C 29.8in /  1008.8hPa ESE 0.6mph /  1km/h 6.9mph /  11.1km/h 89% 0in /  0.0mm
05:39 52.3 °F /  11.3 °C 49.1 °F /  9.5 °C 29.8in /  1009.1hPa Calm   7mph /  11.3km/h 89% 0in /  0.0mm
05:44 52.3 °F /  11.3 °C 49.3 °F /  9.6 °C 29.8in /  1009.1hPa SO 2.2mph /  3.5km/h 5.9mph /  9.5km/h 89.5% 0in /  0.0mm
05:49 52.3 °F /  11.3 °C 49.5 °F /  9.7 °C 29.8in /  1009.1hPa SSO 3.1mph /  5km/h 6.2mph /  10km/h 90% 0in /  0.0mm
05:54 52.3 °F /  11.3 °C 49.6 °F /  9.8 °C 29.8in /  1009.1hPa SSO 3.9mph /  6.3km/h 6.2mph /  10km/h 90% 0in /  0.0mm
05:59 52.5 °F /  11.4 °C 49.6 °F /  9.8 °C 29.8in /  1008.9hPa SSE 4.3mph /  6.9km/h 6mph /  9.7km/h 90% 0in /  0.0mm
06:04 52.5 °F /  11.4 °C 49.5 °F /  9.7 °C 29.8in /  1008.9hPa NE 3.4mph /  5.5km/h 5.8mph /  9.3km/h 89% 0in /  0.0mm
06:09 52.3 °F /  11.3 °C 49.3 °F /  9.6 °C 29.8in /  1008.9hPa Este 3.1mph /  5km/h 6.9mph /  11.1km/h 88.9% 0in /  0.0mm
06:14 52.2 °F /  11.2 °C 48.9 °F /  9.4 °C 29.8in /  1008.9hPa NNE 3.4mph /  5.5km/h 7mph /  11.3km/h 88.9% 0in /  0.0mm
06:19 52 °F /  11.1 °C 48.7 °F /  9.3 °C 29.8in /  1008.9hPa NE 3.6mph /  5.8km/h 6mph /  9.7km/h 89% 0in /  0.0mm
06:24 52 °F /  11.1 °C 48.9 °F /  9.4 °C 29.8in /  1009.3hPa ENE 2.5mph /  4km/h 5.9mph /  9.5km/h 89.4% 0in /  0.0mm
06:29 52.2 °F /  11.2 °C 49.3 °F /  9.6 °C 29.8in /  1009.3hPa SSE 2mph /  3.2km/h 7.4mph /  11.9km/h 90% 0in /  0.0mm
06:34 52.5 °F /  11.4 °C 49.6 °F /  9.8 °C 29.8in /  1009.3hPa SSE 3.6mph /  5.8km/h 7mph /  11.3km/h 90% 0in /  0.0mm
06:39 52.7 °F /  11.5 °C 49.6 °F /  9.8 °C 29.8in /  1009.3hPa Sur 4.3mph /  6.9km/h 6mph /  9.7km/h 89.3% 0in /  0.0mm
06:44 52.9 °F /  11.6 °C 49.6 °F /  9.8 °C 29.8in /  1009.3hPa SSE 3.8mph /  6.1km/h 5.2mph /  8.4km/h 89% 0in /  0.0mm
06:49 53.1 °F /  11.7 °C 49.6 °F /  9.8 °C 29.8in /  1009.3hPa Sur 3.6mph /  5.8km/h 5mph /  8km/h 88.4% 0in /  0.0mm
06:54 53.1 °F /  11.7 °C 49.6 °F /  9.8 °C 29.8in /  1009.7hPa Sur 2.7mph /  4.4km/h 5mph /  8km/h 88% 0in /  0.0mm
06:59 53.1 °F /  11.7 °C 49.6 °F /  9.8 °C 29.8in /  1009.7hPa SSO 2.4mph /  3.9km/h 4.3mph /  6.9km/h 88% 0in /  0.0mm
07:04 52.9 °F /  11.6 °C 49.5 °F /  9.7 °C 29.8in /  1009.7hPa SO 2.1mph /  3.4km/h 5.2mph /  8.4km/h 88% 0in /  0.0mm
07:09 52.9 °F /  11.6 °C 49.5 °F /  9.7 °C 29.8in /  1009.8hPa SO 2mph /  3.2km/h 5mph /  8km/h 88% 0in /  0.0mm
07:14 53.1 °F /  11.7 °C 49.5 °F /  9.7 °C 29.8in /  1009.8hPa Oeste 2.6mph /  4.2km/h 5mph /  8km/h 87.8% 0in /  0.0mm
07:19 52.9 °F /  11.6 °C 49.3 °F /  9.6 °C 29.8in /  1009.8hPa OSO 2.9mph /  4.7km/h 5mph /  8km/h 87.4% 0in /  0.0mm
07:24 52.9 °F /  11.6 °C 49.5 °F /  9.7 °C 29.8in /  1010.1hPa OSO 2.9mph /  4.7km/h 5.4mph /  8.7km/h 88% 0in /  0.0mm
07:29 52.9 °F /  11.6 °C 49.5 °F /  9.7 °C 29.8in /  1010.1hPa SO 2.9mph /  4.7km/h 6.4mph /  10.3km/h 88% 0in /  0.0mm
07:34 53.1 °F /  11.7 °C 49.6 °F /  9.8 °C 29.8in /  1010.1hPa Sur 3.9mph /  6.2km/h 7mph /  11.3km/h 88% 0in /  0.0mm
07:39 53.1 °F /  11.7 °C 49.5 °F /  9.7 °C 29.8in /  1010.1hPa SSE 4.3mph /  6.9km/h 6mph /  9.7km/h 87.7% 0in /  0.0mm
07:44 53.1 °F /  11.7 °C 49.3 °F /  9.6 °C 29.8in /  1010.1hPa SE 3.9mph /  6.2km/h 6mph /  9.7km/h 87% 0in /  0.0mm
07:49 52.9 °F /  11.6 °C 49.1 °F /  9.5 °C 29.8in /  1010.1hPa ESE 3.6mph /  5.8km/h 5mph /  8km/h 87% 0in /  0.0mm
07:54 52.7 °F /  11.5 °C 48.9 °F /  9.4 °C 29.8in /  1010.4hPa Este 2.8mph /  4.5km/h 4.6mph /  7.4km/h 87% 0in /  0.0mm
07:59 52.3 °F /  11.3 °C 48.7 °F /  9.3 °C 29.8in /  1010.4hPa Este 2.4mph /  3.9km/h 5mph /  8km/h 87% 0in /  0.0mm
08:04 52.3 °F /  11.3 °C 48.6 °F /  9.2 °C 29.8in /  1010.4hPa Este 2.1mph /  3.4km/h 5mph /  8km/h 87.1% 0in /  0.0mm
08:09 52.2 °F /  11.2 °C 48.7 °F /  9.3 °C 29.8in /  1010.4hPa ESE 2mph /  3.2km/h 4.7mph /  7.6km/h 88% 0in /  0.0mm
08:14 52.2 °F /  11.2 °C 48.7 °F /  9.3 °C 29.8in /  1010.4hPa ESE 2.8mph /  4.5km/h 5.2mph /  8.4km/h 88% 0in /  0.0mm
08:19 52.2 °F /  11.2 °C 48.7 °F /  9.3 °C 29.8in /  1010.4hPa SE 3.1mph /  5km/h 5.2mph /  8.4km/h 88% 0in /  0.0mm
08:24 52.5 °F /  11.4 °C 49.1 °F /  9.5 °C 29.8in /  1010.7hPa SSO 3.4mph /  5.5km/h 5.9mph /  9.5km/h 88% 0in /  0.0mm
08:29 52.9 °F /  11.6 °C 49.3 °F /  9.6 °C 29.8in /  1010.7hPa SSO 3.6mph /  5.8km/h 6mph /  9.7km/h 88% 0in /  0.0mm
08:34 53.1 °F /  11.7 °C 49.5 °F /  9.7 °C 29.8in /  1010.7hPa Sur 3.9mph /  6.2km/h 6.2mph /  10km/h 87.1% 0in /  0.0mm
08:39 53.6 °F /  12 °C 49.6 °F /  9.8 °C 29.8in /  1010.7hPa Sur 4mph /  6.5km/h 6mph /  9.7km/h 86.7% 0in /  0.0mm
08:44 54 °F /  12.2 °C 49.8 °F /  9.9 °C 29.8in /  1010.7hPa SSE 3.4mph /  5.5km/h 6mph /  9.7km/h 85.9% 0in /  0.0mm
08:49 53.8 °F /  12.1 °C 49.3 °F /  9.6 °C 29.8in /  1010.7hPa North 3.1mph /  5km/h 5mph /  8km/h 84.4% 0in /  0.0mm
08:54 53.4 °F /  11.9 °C 48.9 °F /  9.4 °C 29.9in /  1010.9hPa NNE 3mph /  4.8km/h 5mph /  8km/h 84.7% 0in /  0.0mm
08:59 53.2 °F /  11.8 °C 48.7 °F /  9.3 °C 29.9in /  1010.9hPa NNE 2.9mph /  4.7km/h 5.8mph /  9.3km/h 85% 0in /  0.0mm
09:04 53.1 °F /  11.7 °C 48.9 °F /  9.4 °C 29.9in /  1010.9hPa NE 3mph /  4.9km/h 6mph /  9.7km/h 85.8% 0in /  0.0mm
09:09 53.4 °F /  11.9 °C 49.6 °F /  9.8 °C 29.9in /  1011.0hPa NE 3.1mph /  5km/h 5mph /  8km/h 86.8% 0in /  0.0mm
09:14 54 °F /  12.2 °C 49.8 °F /  9.9 °C 29.9in /  1011.0hPa NE 0.9mph /  1.5km/h 2.3mph /  3.7km/h 86.1% 0in /  0.0mm
09:19 54.5 °F /  12.5 °C 50 °F /  10 °C 29.9in /  1011.0hPa Calm   3.1mph /  5km/h 85% 0in /  0.0mm
09:24 55 °F /  12.8 °C 50.2 °F /  10.1 °C 29.9in /  1011.2hPa NE 0.9mph /  1.5km/h 3.6mph /  5.8km/h 83.8% 0in /  0.0mm
09:29 55.6 °F /  13.1 °C 50.5 °F /  10.3 °C 29.9in /  1011.2hPa ENE 1.4mph /  2.2km/h 4mph /  6.4km/h 83.1% 0in /  0.0mm
09:34 55.9 °F /  13.3 °C 50.4 °F /  10.2 °C 29.9in /  1011.2hPa Este 1.7mph /  2.7km/h 4mph /  6.4km/h 81.4% 0in /  0.0mm
09:39 56.7 °F /  13.7 °C 50.7 °F /  10.4 °C 29.9in /  1011.3hPa Este 1.8mph /  2.9km/h 4mph /  6.4km/h 80.9% 0in /  0.0mm
09:44 56.8 °F /  13.8 °C 50.9 °F /  10.5 °C 29.9in /  1011.3hPa Este 0.6mph /  0.9km/h 2.4mph /  3.9km/h 80% 0in /  0.0mm
09:49 57.2 °F /  14 °C 50.9 °F /  10.5 °C 29.9in /  1011.3hPa Calm   3.6mph /  5.8km/h 79.1% 0in /  0.0mm
09:54 57.6 °F /  14.2 °C 51.1 °F /  10.6 °C 29.9in /  1011.4hPa Sur 1mph /  1.6km/h 4mph /  6.4km/h 79.4% 0in /  0.0mm
09:59 57.9 °F /  14.4 °C 51.4 °F /  10.8 °C 29.9in /  1011.4hPa Sur 1.4mph /  2.2km/h 4mph /  6.4km/h 79% 0in /  0.0mm
10:04 58.6 °F /  14.8 °C 51.8 °F /  11 °C 29.9in /  1011.4hPa Sur 1.4mph /  2.2km/h 4.3mph /  6.9km/h 78.3% 0in /  0.0mm
10:09 59.2 °F /  15.1 °C 51.6 °F /  10.9 °C 29.9in /  1011.7hPa SO 1.4mph /  2.2km/h 5mph /  8km/h 76.3% 0in /  0.0mm
10:14 59.4 °F /  15.2 °C 51.8 °F /  11 °C 29.9in /  1011.7hPa SSO 2.1mph /  3.4km/h 5mph /  8km/h 76% 0in /  0.0mm
10:19 59.5 °F /  15.3 °C 51.8 °F /  11 °C 29.9in /  1011.7hPa SSO 2.4mph /  3.9km/h 6.2mph /  10km/h 75.3% 0in /  0.0mm
10:24 59.9 °F /  15.5 °C 51.8 °F /  11 °C 29.9in /  1011.7hPa Sur 2.9mph /  4.7km/h 6mph /  9.7km/h 74.6% 0in /  0.0mm
10:29 60.3 °F /  15.7 °C 52.2 °F /  11.2 °C 29.9in /  1011.6hPa Sur 3.1mph /  5km/h 5mph /  8km/h 74.4% 0in /  0.0mm
10:34 60.8 °F /  16 °C 52.3 °F /  11.3 °C 29.9in /  1011.6hPa SSE 2.6mph /  4.2km/h 4.6mph /  7.4km/h 73.4% 0in /  0.0mm
10:39 61.3 °F /  16.3 °C 52.3 °F /  11.3 °C 29.9in /  1011.8hPa SSE 2.4mph /  3.9km/h 6.2mph /  10km/h 72.3% 0in /  0.0mm
10:44 61.5 °F /  16.4 °C 52.5 °F /  11.4 °C 29.9in /  1011.8hPa SSE 3.5mph /  5.6km/h 6.2mph /  10km/h 72.2% 0in /  0.0mm
10:49 61.9 °F /  16.6 °C 53.1 °F /  11.7 °C 29.9in /  1011.8hPa Sur 4mph /  6.5km/h 6mph /  9.7km/h 72.6% 0in /  0.0mm
10:54 62.2 °F /  16.8 °C 53.2 °F /  11.8 °C 29.9in /  1011.8hPa Sur 3.4mph /  5.4km/h 6mph /  9.7km/h 72% 0in /  0.0mm
10:59 62.6 °F /  17 °C 53.4 °F /  11.9 °C 29.9in /  1011.8hPa Sur 3.1mph /  5km/h 6mph /  9.7km/h 71.6% 0in /  0.0mm
11:04 63.1 °F /  17.3 °C 53.4 °F /  11.9 °C 29.9in /  1011.8hPa SSE 2.9mph /  4.7km/h 5mph /  8km/h 70.8% 0in /  0.0mm
11:09 63.7 °F /  17.6 °C 53.4 °F /  11.9 °C 29.9in /  1011.9hPa ESE 2.9mph /  4.7km/h 5.2mph /  8.4km/h 69.2% 0in /  0.0mm
11:14 64 °F /  17.8 °C 53.4 °F /  11.9 °C 29.9in /  1011.9hPa SE 2.9mph /  4.7km/h 5.8mph /  9.3km/h 68.4% 0in /  0.0mm
11:19 64.4 °F /  18 °C 53.6 °F /  12 °C 29.9in /  1011.9hPa SE 2.9mph /  4.7km/h 6mph /  9.7km/h 68% 0in /  0.0mm
11:24 64.8 °F /  18.2 °C 53.6 °F /  12 °C 29.9in /  1011.9hPa Sur 3mph /  4.9km/h 5.8mph /  9.3km/h 67.3% 0in /  0.0mm
11:29 64.9 °F /  18.3 °C 53.8 °F /  12.1 °C 29.9in /  1011.8hPa SSO 3.1mph /  5km/h 6mph /  9.7km/h 66.7% 0in /  0.0mm
11:34 65.1 °F /  18.4 °C 53.2 °F /  11.8 °C 29.9in /  1011.8hPa OSO 3.1mph /  5km/h 7.4mph /  11.9km/h 65.5% 0in /  0.0mm
11:39 65.7 °F /  18.7 °C 53.4 °F /  11.9 °C 29.9in /  1011.8hPa ONO 3.1mph /  5km/h 8.5mph /  13.7km/h 64.7% 0in /  0.0mm
11:44 66 °F /  18.9 °C 53.4 °F /  11.9 °C 29.9in /  1011.6hPa NO 4.2mph /  6.8km/h 10.7mph /  17.2km/h 63.5% 0in /  0.0mm
11:49 66.7 °F /  19.3 °C 53.4 °F /  11.9 °C 29.9in /  1011.6hPa ONO 4.7mph /  7.6km/h 11mph /  17.7km/h 62.2% 0in /  0.0mm
11:54 67.5 °F /  19.7 °C 53.1 °F /  11.7 °C 29.9in /  1011.6hPa ONO 5.8mph /  9.3km/h 11mph /  17.7km/h 59.8% 0in /  0.0mm
11:59 68.2 °F /  20.1 °C 52.7 °F /  11.5 °C 29.9in /  1011.4hPa SO 6.2mph /  10km/h 9mph /  14.5km/h 57.9% 0in /  0.0mm
12:04 68 °F /  20 °C 53.2 °F /  11.8 °C 29.9in /  1011.4hPa ESE 4.8mph /  7.8km/h 10.4mph /  16.7km/h 59.2% 0in /  0.0mm
12:09 67.5 °F /  19.7 °C 53.1 °F /  11.7 °C 29.9in /  1011.4hPa SE 4.3mph /  6.9km/h 10mph /  16.1km/h 60% 0in /  0.0mm
12:14 67.5 °F /  19.7 °C 53.2 °F /  11.8 °C 29.9in /  1011.4hPa SE 4.9mph /  7.9km/h 7.4mph /  11.9km/h 60% 0in /  0.0mm
12:19 68 °F /  20 °C 53.2 °F /  11.8 °C 29.9in /  1011.4hPa SE 5.2mph /  8.4km/h 7mph /  11.3km/h 59.2% 0in /  0.0mm
12:24 68.5 °F /  20.3 °C 53.1 °F /  11.7 °C 29.9in /  1011.4hPa SSE 4.8mph /  7.8km/h 7.4mph /  11.9km/h 58% 0in /  0.0mm
12:29 68.9 °F /  20.5 °C 52.5 °F /  11.4 °C 29.9in /  1011.1hPa SE 4.7mph /  7.6km/h 7mph /  11.3km/h 56% 0in /  0.0mm
12:34 69.3 °F /  20.7 °C 52.5 °F /  11.4 °C 29.9in /  1011.1hPa ESE 4.7mph /  7.6km/h 7.6mph /  12.2km/h 55.1% 0in /  0.0mm
12:39 70 °F /  21.1 °C 52.9 °F /  11.6 °C 29.9in /  1011.1hPa SE 4.7mph /  7.6km/h 10mph /  16.1km/h 54.6% 0in /  0.0mm
12:44 70.2 °F /  21.2 °C 52.5 °F /  11.4 °C 29.9in /  1011.0hPa SE 5mph /  8.1km/h 9mph /  14.5km/h 53.5% 0in /  0.0mm
12:49 70.5 °F /  21.4 °C 52 °F /  11.1 °C 29.9in /  1011.0hPa SSE 5.2mph /  8.4km/h 7.4mph /  11.9km/h 51.6% 0in /  0.0mm
12:54 71.1 °F /  21.7 °C 51.1 °F /  10.6 °C 29.9in /  1011.0hPa SSO 4.1mph /  6.6km/h 9.7mph /  15.6km/h 49.6% 0in /  0.0mm
12:59 71.1 °F /  21.7 °C 50.9 °F /  10.5 °C 29.8in /  1010.5hPa OSO 3.6mph /  5.8km/h 10mph /  16.1km/h 48.9% 0in /  0.0mm
13:04 71.1 °F /  21.7 °C 51.1 °F /  10.6 °C 29.8in /  1010.5hPa ONO 4.4mph /  7.1km/h 8.1mph /  13km/h 49.3% 0in /  0.0mm
13:09 71.2 °F /  21.8 °C 51.3 °F /  10.7 °C 29.8in /  1010.5hPa ONO 4.7mph /  7.6km/h 8.1mph /  13km/h 49.4% 0in /  0.0mm
13:14 71.1 °F /  21.7 °C 51.3 °F /  10.7 °C 29.8in /  1010.4hPa Oeste 4.7mph /  7.6km/h 8.1mph /  13km/h 49.4% 0in /  0.0mm
13:19 71.1 °F /  21.7 °C 51.4 °F /  10.8 °C 29.8in /  1010.4hPa NO 4.7mph /  7.6km/h 8.1mph /  13km/h 50% 0in /  0.0mm
13:24 71.2 °F /  21.8 °C 51.6 °F /  10.9 °C 29.8in /  1010.4hPa ONO 4.4mph /  7.1km/h 8.1mph /  13km/h 50% 0in /  0.0mm
13:29 71.2 °F /  21.8 °C 51.4 °F /  10.8 °C 29.8in /  1010.3hPa OSO 4.3mph /  6.9km/h 8mph /  12.9km/h 49.7% 0in /  0.0mm
13:34 71.2 °F /  21.8 °C 51.3 °F /  10.7 °C 29.8in /  1010.3hPa Oeste 3.5mph /  5.6km/h 5.2mph /  8.4km/h 49.2% 0in /  0.0mm
13:39 71.4 °F /  21.9 °C 51.6 °F /  10.9 °C 29.8in /  1010.3hPa SSO 3.1mph /  5km/h 5.9mph /  9.5km/h 49.7% 0in /  0.0mm
13:44 71.8 °F /  22.1 °C 50.9 °F /  10.5 °C 29.8in /  1010.1hPa Oeste 3mph /  4.8km/h 8.1mph /  13km/h 47.9% 0in /  0.0mm
13:49 72.1 °F /  22.3 °C 50.7 °F /  10.4 °C 29.8in /  1010.1hPa ONO 2.9mph /  4.7km/h 9.7mph /  15.6km/h 47% 0in /  0.0mm
13:54 72.3 °F /  22.4 °C 50.2 °F /  10.1 °C 29.8in /  1010.1hPa ONO 4.1mph /  6.6km/h 10.7mph /  17.2km/h 45.8% 0in /  0.0mm
13:59 72.3 °F /  22.4 °C 49.8 °F /  9.9 °C 29.8in /  1010.0hPa NO 4.7mph /  7.6km/h 11.8mph /  19km/h 45.2% 0in /  0.0mm
14:04 72.3 °F /  22.4 °C 49.8 °F /  9.9 °C 29.8in /  1010.0hPa ONO 6.6mph /  10.7km/h 12.7mph /  20.4km/h 45.1% 0in /  0.0mm
14:09 72.3 °F /  22.4 °C 49.8 °F /  9.9 °C 29.8in /  1010.0hPa ONO 7.4mph /  11.9km/h 15mph /  24.1km/h 44.9% 0in /  0.0mm
14:14 72.5 °F /  22.5 °C 50 °F /  10 °C 29.8in /  1009.9hPa NO 8.1mph /  13.1km/h 15mph /  24.1km/h 45.2% 0in /  0.0mm
14:19 72.7 °F /  22.6 °C 50.2 °F /  10.1 °C 29.8in /  1009.9hPa NO 8.5mph /  13.7km/h 16.3mph /  26.2km/h 45.2% 0in /  0.0mm
14:24 72.7 °F /  22.6 °C 50 °F /  10 °C 29.8in /  1009.9hPa ONO 8.5mph /  13.7km/h 16.1mph /  25.9km/h 45% 0in /  0.0mm
14:29 72.7 °F /  22.6 °C 50.4 °F /  10.2 °C 29.8in /  1009.8hPa NO 8.5mph /  13.7km/h 15mph /  24.1km/h 45.3% 0in /  0.0mm
14:34 72.7 °F /  22.6 °C 50 °F /  10 °C 29.8in /  1009.8hPa NO 7mph /  11.3km/h 14mph /  22.5km/h 44.8% 0in /  0.0mm
14:39 72.5 °F /  22.5 °C 48.7 °F /  9.3 °C 29.8in /  1009.8hPa ONO 6.4mph /  10.3km/h 17.3mph /  27.8km/h 43% 0in /  0.0mm
14:44 72.3 °F /  22.4 °C 47.5 °F /  8.6 °C 29.8in /  1009.8hPa NO 8.3mph /  13.4km/h 18.5mph /  29.8km/h 41.4% 0in /  0.0mm
14:49 72.3 °F /  22.4 °C 47.3 °F /  8.5 °C 29.8in /  1009.8hPa ONO 9.2mph /  14.8km/h 19mph /  30.6km/h 41% 0in /  0.0mm
14:54 72.3 °F /  22.4 °C 46.8 °F /  8.2 °C 29.8in /  1009.8hPa NO 8mph /  12.8km/h 15mph /  24.1km/h 40.2% 0in /  0.0mm
14:59 72.3 °F /  22.4 °C 46.9 °F /  8.3 °C 29.8in /  1009.7hPa ONO 7.4mph /  11.9km/h 16.8mph /  27km/h 40.5% 0in /  0.0mm
15:04 72.3 °F /  22.4 °C 46.8 °F /  8.2 °C 29.8in /  1009.7hPa ONO 8.3mph /  13.4km/h 18.1mph /  29.1km/h 40.2% 0in /  0.0mm
15:09 72.3 °F /  22.4 °C 46.6 °F /  8.1 °C 29.8in /  1009.7hPa ONO 8.7mph /  14km/h 18.4mph /  29.6km/h 40% 0in /  0.0mm
15:14 72.1 °F /  22.3 °C 46 °F /  7.8 °C 29.8in /  1009.6hPa ONO 9.6mph /  15.5km/h 20.7mph /  33.3km/h 39.1% 0in /  0.0mm
15:19 72.1 °F /  22.3 °C 45.9 °F /  7.7 °C 29.8in /  1009.6hPa ONO 10mph /  16.1km/h 21mph /  33.8km/h 39.2% 0in /  0.0mm
15:24 72 °F /  22.2 °C 45.9 °F /  7.7 °C 29.8in /  1009.6hPa ONO 10.1mph /  16.3km/h 16.1mph /  25.9km/h 39.3% 0in /  0.0mm
15:29 72.1 °F /  22.3 °C 45.9 °F /  7.7 °C 29.8in /  1009.5hPa NO 10.2mph /  16.4km/h 16.1mph /  25.9km/h 39% 0in /  0.0mm
15:34 72.1 °F /  22.3 °C 45.5 °F /  7.5 °C 29.8in /  1009.5hPa ONO 9.5mph /  15.3km/h 19mph /  30.6km/h 38.7% 0in /  0.0mm
15:39 72.1 °F /  22.3 °C 45.5 °F /  7.5 °C 29.8in /  1009.5hPa ONO 9.2mph /  14.8km/h 19mph /  30.6km/h 38.6% 0in /  0.0mm
15:44 72.1 °F /  22.3 °C 45.5 °F /  7.5 °C 29.8in /  1009.5hPa ONO 9.6mph /  15.4km/h 19.7mph /  31.7km/h 38.4% 0in /  0.0mm
15:49 72.1 °F /  22.3 °C 45.1 °F /  7.3 °C 29.8in /  1009.5hPa ONO 9.7mph /  15.6km/h 20.8mph /  33.5km/h 38% 0in /  0.0mm
15:54 72 °F /  22.2 °C 45 °F /  7.2 °C 29.8in /  1009.6hPa NO 10.1mph /  16.2km/h 21mph /  33.8km/h 38.1% 0in /  0.0mm
15:59 71.6 °F /  22 °C 44.8 °F /  7.1 °C 29.8in /  1009.6hPa NO 10.2mph /  16.4km/h 18.5mph /  29.8km/h 38.4% 0in /  0.0mm
16:04 71.4 °F /  21.9 °C 44.8 °F /  7.1 °C 29.8in /  1009.6hPa NO 10.2mph /  16.4km/h 19mph /  30.6km/h 38.3% 0in /  0.0mm
16:09 71.2 °F /  21.8 °C 44.4 °F /  6.9 °C 29.8in /  1009.6hPa NO 10.2mph /  16.4km/h 19.6mph /  31.5km/h 38% 0in /  0.0mm
16:14 71.1 °F /  21.7 °C 44.6 °F /  7 °C 29.8in /  1009.6hPa NO 10.9mph /  17.5km/h 20mph /  32.2km/h 38.6% 0in /  0.0mm
16:19 71.1 °F /  21.7 °C 44.8 °F /  7.1 °C 29.8in /  1009.6hPa ONO 11.2mph /  18km/h 19.6mph /  31.5km/h 39% 0in /  0.0mm
16:24 70.9 °F /  21.6 °C 44.8 °F /  7.1 °C 29.8in /  1009.8hPa ONO 10.2mph /  16.4km/h 20mph /  32.2km/h 39% 0in /  0.0mm
16:29 70.9 °F /  21.6 °C 44.8 °F /  7.1 °C 29.8in /  1009.8hPa NO 9.7mph /  15.6km/h 16.3mph /  26.2km/h 39% 0in /  0.0mm
16:34 70.7 °F /  21.5 °C 44.6 °F /  7 °C 29.8in /  1009.8hPa NO 9mph /  14.5km/h 19.7mph /  31.7km/h 39% 0in /  0.0mm
16:39 70.5 °F /  21.4 °C 44.4 °F /  6.9 °C 29.8in /  1009.9hPa NO 8.7mph /  14km/h 20mph /  32.2km/h 39% 0in /  0.0mm
16:44 70.3 °F /  21.3 °C 44.1 °F /  6.7 °C 29.8in /  1009.9hPa ONO 9.4mph /  15.1km/h 16.1mph /  25.9km/h 39% 0in /  0.0mm
16:49 70.2 °F /  21.2 °C 44.1 °F /  6.7 °C 29.8in /  1009.9hPa ONO 9.7mph /  15.6km/h 16.3mph /  26.2km/h 39% 0in /  0.0mm
16:54 70 °F /  21.1 °C 43.9 °F /  6.6 °C 29.8in /  1010.0hPa ONO 9mph /  14.5km/h 21.3mph /  34.3km/h 39% 0in /  0.0mm
16:59 69.6 °F /  20.9 °C 43.9 °F /  6.6 °C 29.8in /  1010.0hPa ONO 8.7mph /  14km/h 21mph /  33.8km/h 39.4% 0in /  0.0mm
17:04 69.6 °F /  20.9 °C 44.2 °F /  6.8 °C 29.8in /  1010.0hPa ONO 11.4mph /  18.3km/h 21mph /  33.8km/h 40% 0in /  0.0mm
17:09 69.4 °F /  20.8 °C 44.1 °F /  6.7 °C 29.8in /  1010.0hPa ONO 12.3mph /  19.8km/h 21mph /  33.8km/h 40% 0in /  0.0mm
17:14 69.4 °F /  20.8 °C 44.1 °F /  6.7 °C 29.8in /  1010.0hPa ONO 10.7mph /  17.2km/h 19mph /  30.6km/h 40% 0in /  0.0mm
17:19 69.3 °F /  20.7 °C 44.1 °F /  6.7 °C 29.8in /  1010.0hPa ONO 10mph /  16.1km/h 19mph /  30.6km/h 40.5% 0in /  0.0mm
17:24 68.9 °F /  20.5 °C 44.1 °F /  6.7 °C 29.8in /  1010.1hPa Oeste 10.5mph /  16.9km/h 19.7mph /  31.7km/h 40.7% 0in /  0.0mm
17:29 68.7 °F /  20.4 °C 43.3 °F /  6.3 °C 29.8in /  1010.1hPa ONO 10.7mph /  17.2km/h 20mph /  32.2km/h 40% 0in /  0.0mm
17:34 68.5 °F /  20.3 °C 43.5 °F /  6.4 °C 29.8in /  1010.1hPa ONO 11.8mph /  19km/h 20mph /  32.2km/h 40.4% 0in /  0.0mm
17:39 68.4 °F /  20.2 °C 43.7 °F /  6.5 °C 29.8in /  1010.3hPa ONO 12.3mph /  19.8km/h 20mph /  32.2km/h 41% 0in /  0.0mm
17:44 68 °F /  20 °C 43.5 °F /  6.4 °C 29.8in /  1010.3hPa Oeste 9.4mph /  15.1km/h 15mph /  24.1km/h 41% 0in /  0.0mm
17:49 67.6 °F /  19.8 °C 43.7 °F /  6.5 °C 29.8in /  1010.3hPa Oeste 8.1mph /  13km/h 15mph /  24.1km/h 42% 0in /  0.0mm
17:54 67.5 °F /  19.7 °C 43.7 °F /  6.5 °C 29.8in /  1010.5hPa Oeste 7.3mph /  11.7km/h 13mph /  20.9km/h 42% 0in /  0.0mm
17:59 67.3 °F /  19.6 °C 43.9 °F /  6.6 °C 29.8in /  1010.5hPa Oeste 6.9mph /  11.1km/h 12mph /  19.3km/h 42.6% 0in /  0.0mm
18:04 67.1 °F /  19.5 °C 43.9 °F /  6.6 °C 29.8in /  1010.5hPa SO 4.8mph /  7.7km/h 9mph /  14.5km/h 43% 0in /  0.0mm
18:09 66.9 °F /  19.4 °C 43.7 °F /  6.5 °C 29.9in /  1010.9hPa SSE 4mph /  6.5km/h 6.9mph /  11.1km/h 43% 0in /  0.0mm
18:14 66.9 °F /  19.4 °C 43.7 °F /  6.5 °C 29.9in /  1010.9hPa SSO 4mph /  6.5km/h 8.1mph /  13km/h 43% 0in /  0.0mm
18:19 66.7 °F /  19.3 °C 43.7 °F /  6.5 °C 29.9in /  1010.9hPa SSO 4mph /  6.5km/h 10.2mph /  16.4km/h 43.2% 0in /  0.0mm
18:24 66.7 °F /  19.3 °C 43.5 °F /  6.4 °C 29.9in /  1011.2hPa SO 5mph /  8km/h 18.4mph /  29.6km/h 43% 0in /  0.0mm
18:29 67.1 °F /  19.5 °C 43.5 °F /  6.4 °C 29.9in /  1011.2hPa SO 5.4mph /  8.7km/h 18mph /  29km/h 42.6% 0in /  0.0mm
18:34 67.1 °F /  19.5 °C 43.5 °F /  6.4 °C 29.9in /  1011.2hPa SSE 5.8mph /  9.3km/h 10mph /  16.1km/h 42.7% 0in /  0.0mm
18:39 66.9 °F /  19.4 °C 43.7 °F /  6.5 °C 29.9in /  1011.5hPa OSO 5.9mph /  9.5km/h 6mph /  9.7km/h 43% 0in /  0.0mm
18:44 66.7 °F /  19.3 °C 43.5 °F /  6.4 °C 29.9in /  1011.5hPa OSO 4mph /  6.4km/h 6.4mph /  10.3km/h 43% 0in /  0.0mm
18:49 66.6 °F /  19.2 °C 43.3 °F /  6.3 °C 29.9in /  1011.5hPa ONO 3.1mph /  5km/h 7mph /  11.3km/h 43% 0in /  0.0mm
18:54 66.4 °F /  19.1 °C 43.3 °F /  6.3 °C 29.9in /  1011.5hPa Oeste 3.7mph /  6km/h 8.1mph /  13km/h 43.4% 0in /  0.0mm
18:59 66 °F /  18.9 °C 43 °F /  6.1 °C 29.9in /  1011.5hPa ONO 4mph /  6.5km/h 8.5mph /  13.7km/h 43.1% 0in /  0.0mm
19:04 66 °F /  18.9 °C 43.3 °F /  6.3 °C 29.9in /  1011.5hPa OSO 4.5mph /  7.3km/h 9mph /  14.5km/h 43.8% 0in /  0.0mm
19:09 65.8 °F /  18.8 °C 43.3 °F /  6.3 °C 29.9in /  1011.8hPa Oeste 4.7mph /  7.6km/h 6mph /  9.7km/h 44% 0in /  0.0mm
19:14 65.7 °F /  18.7 °C 43.2 °F /  6.2 °C 29.9in /  1011.8hPa OSO 3.6mph /  5.8km/h 7.4mph /  11.9km/h 44% 0in /  0.0mm
19:19 65.7 °F /  18.7 °C 43.2 °F /  6.2 °C 29.9in /  1011.8hPa OSO 3.1mph /  5km/h 10.4mph /  16.7km/h 44% 0in /  0.0mm
19:24 65.8 °F /  18.8 °C 43.3 °F /  6.3 °C 29.9in /  1012.0hPa Oeste 4.6mph /  7.4km/h 10mph /  16.1km/h 44% 0in /  0.0mm
19:29 65.8 °F /  18.8 °C 43.2 °F /  6.2 °C 29.9in /  1012.0hPa OSO 5.2mph /  8.4km/h 9mph /  14.5km/h 44% 0in /  0.0mm
19:34 65.5 °F /  18.6 °C 43.3 °F /  6.3 °C 29.9in /  1012.0hPa OSO 5.2mph /  8.4km/h 12.7mph /  20.4km/h 44.6% 0in /  0.0mm
19:39 65.3 °F /  18.5 °C 43.5 °F /  6.4 °C 29.9in /  1012.0hPa Oeste 5.2mph /  8.4km/h 13mph /  20.9km/h 45% 0in /  0.0mm
19:44 65.3 °F /  18.5 °C 43.3 °F /  6.3 °C 29.9in /  1011.8hPa OSO 5.9mph /  9.5km/h 13mph /  20.9km/h 45% 0in /  0.0mm
19:49 65.1 °F /  18.4 °C 43.5 °F /  6.4 °C 29.9in /  1011.8hPa OSO 6.2mph /  10km/h 9mph /  14.5km/h 45.6% 0in /  0.0mm
19:54 64.8 °F /  18.2 °C 43.7 °F /  6.5 °C 29.9in /  1011.8hPa SO 4.8mph /  7.8km/h 9.7mph /  15.6km/h 46.2% 0in /  0.0mm
19:59 64.4 °F /  18 °C 43.7 °F /  6.5 °C 29.9in /  1011.8hPa OSO 4.3mph /  6.9km/h 10mph /  16.1km/h 47% 0in /  0.0mm
20:04 64.2 °F /  17.9 °C 43.5 °F /  6.4 °C 29.9in /  1011.8hPa OSO 5mph /  8km/h 9mph /  14.5km/h 47% 0in /  0.0mm
20:09 64 °F /  17.8 °C 43.9 °F /  6.6 °C 29.9in /  1012.2hPa OSO 5.2mph /  8.4km/h 8mph /  12.9km/h 47.9% 0in /  0.0mm
20:14 63.9 °F /  17.7 °C 43.9 °F /  6.6 °C 29.9in /  1012.2hPa OSO 4.3mph /  7km/h 8.1mph /  13km/h 48% 0in /  0.0mm
20:19 63.9 °F /  17.7 °C 43.7 °F /  6.5 °C 29.9in /  1012.2hPa Oeste 4mph /  6.5km/h 9.2mph /  14.8km/h 48% 0in /  0.0mm
20:24 63.9 °F /  17.7 °C 43.7 °F /  6.5 °C 29.9in /  1012.6hPa Oeste 4.8mph /  7.8km/h 9.2mph /  14.8km/h 48% 0in /  0.0mm
20:29 63.7 °F /  17.6 °C 43.7 °F /  6.5 °C 29.9in /  1012.6hPa Oeste 5.2mph /  8.4km/h 13.8mph /  22.2km/h 48% 0in /  0.0mm
20:34 63.9 °F /  17.7 °C 43.7 °F /  6.5 °C 29.9in /  1012.6hPa Oeste 5.3mph /  8.6km/h 14mph /  22.5km/h 48% 0in /  0.0mm
20:39 63.7 °F /  17.6 °C 43.7 °F /  6.5 °C 29.9in /  1012.7hPa Oeste 5.4mph /  8.7km/h 10.2mph /  16.4km/h 48% 0in /  0.0mm
20:44 63.9 °F /  17.7 °C 43.7 °F /  6.5 °C 29.9in /  1012.7hPa Oeste 5.8mph /  9.3km/h 10.4mph /  16.7km/h 48% 0in /  0.0mm
20:49 63.9 °F /  17.7 °C 43.7 °F /  6.5 °C 29.9in /  1012.7hPa Oeste 5.9mph /  9.5km/h 10mph /  16.1km/h 48% 0in /  0.0mm
20:54 63.7 °F /  17.6 °C 43.5 °F /  6.4 °C 29.9in /  1012.8hPa Oeste 5.1mph /  8.2km/h 8.5mph /  13.7km/h 48.1% 0in /  0.0mm
20:59 63.5 °F /  17.5 °C 43.9 °F /  6.6 °C 29.9in /  1012.8hPa Oeste 4.7mph /  7.6km/h 9mph /  14.5km/h 49% 0in /  0.0mm
21:04 63.3 °F /  17.4 °C 43.9 °F /  6.6 °C 29.9in /  1012.8hPa Oeste 4.4mph /  7.1km/h 7mph /  11.3km/h 49% 0in /  0.0mm
21:09 63.3 °F /  17.4 °C 43.9 °F /  6.6 °C 29.9in /  1012.9hPa SSO 4.3mph /  6.9km/h 6.2mph /  10km/h 49% 0in /  0.0mm
21:14 63.3 °F /  17.4 °C 43.9 °F /  6.6 °C 29.9in /  1012.9hPa SO 3.9mph /  6.2km/h 6mph /  9.7km/h 49% 0in /  0.0mm
21:19 63.3 °F /  17.4 °C 43.9 °F /  6.6 °C 29.9in /  1012.9hPa SO 3.6mph /  5.8km/h 6mph /  9.7km/h 49% 0in /  0.0mm
21:24 63.3 °F /  17.4 °C 43.9 °F /  6.6 °C 29.9in /  1012.9hPa SO 3.6mph /  5.8km/h 6.2mph /  10km/h 49% 0in /  0.0mm
21:29 63.3 °F /  17.4 °C 43.9 °F /  6.6 °C 29.9in /  1012.7hPa SSO 3.6mph /  5.8km/h 6mph /  9.7km/h 49% 0in /  0.0mm
21:34 63.1 °F /  17.3 °C 43.7 °F /  6.5 °C 29.9in /  1012.7hPa SO 3.9mph /  6.2km/h 6mph /  9.7km/h 49% 0in /  0.0mm
21:39 63.1 °F /  17.3 °C 44.1 °F /  6.7 °C 29.9in /  1012.7hPa Sur 4mph /  6.5km/h 8.1mph /  13km/h 49.8% 0in /  0.0mm
21:44 62.6 °F /  17 °C 44.1 °F /  6.7 °C 29.9in /  1012.7hPa SSE 4.5mph /  7.2km/h 8mph /  12.9km/h 50.5% 0in /  0.0mm
21:49 62.1 °F /  16.7 °C 44.1 °F /  6.7 °C 29.9in /  1012.7hPa Sur 4.7mph /  7.6km/h 10mph /  16.1km/h 51.8% 0in /  0.0mm
21:54 61.3 °F /  16.3 °C 43.9 °F /  6.6 °C 29.9in /  1012.7hPa Sur 5.5mph /  8.9km/h 10.4mph /  16.7km/h 52.8% 0in /  0.0mm
21:59 61 °F /  16.1 °C 44.1 °F /  6.7 °C 29.9in /  1012.7hPa SSO 5.9mph /  9.5km/h 10mph /  16.1km/h 53.8% 0in /  0.0mm
22:04 60.6 °F /  15.9 °C 43.9 °F /  6.6 °C 29.9in /  1012.7hPa Sur 5.5mph /  8.9km/h 8.1mph /  13km/h 54% 0in /  0.0mm
22:09 60.4 °F /  15.8 °C 44.1 °F /  6.7 °C 29.9in /  1013.1hPa Sur 5.4mph /  8.7km/h 8mph /  12.9km/h 54.8% 0in /  0.0mm
22:14 60.3 °F /  15.7 °C 44.1 °F /  6.7 °C 29.9in /  1013.1hPa Sur 4.9mph /  7.9km/h 7mph /  11.3km/h 55% 0in /  0.0mm
22:19 60.1 °F /  15.6 °C 44.2 °F /  6.8 °C 29.9in /  1013.1hPa Oeste 4.7mph /  7.6km/h 6mph /  9.7km/h 55.7% 0in /  0.0mm
22:24 59.7 °F /  15.4 °C 44.1 °F /  6.7 °C 29.9in /  1013.3hPa NO 3.4mph /  5.5km/h 5.9mph /  9.5km/h 56.2% 0in /  0.0mm
22:29 59 °F /  15 °C 44.2 °F /  6.8 °C 29.9in /  1013.3hPa NO 2.9mph /  4.7km/h 6mph /  9.7km/h 57.7% 0in /  0.0mm
22:34 58.1 °F /  14.5 °C 44.2 °F /  6.8 °C 29.9in /  1013.3hPa NO 3.4mph /  5.4km/h 6mph /  9.7km/h 59.7% 0in /  0.0mm
22:39 57.4 °F /  14.1 °C 44.2 °F /  6.8 °C 29.9in /  1013.6hPa ONO 3.6mph /  5.8km/h 6.2mph /  10km/h 61.4% 0in /  0.0mm
22:44 57 °F /  13.9 °C 44.2 °F /  6.8 °C 29.9in /  1013.6hPa OSO 3.3mph /  5.3km/h 6mph /  9.7km/h 62.5% 0in /  0.0mm
22:49 56.8 °F /  13.8 °C 44.4 °F /  6.9 °C 29.9in /  1013.6hPa Oeste 3.1mph /  5km/h 6mph /  9.7km/h 63% 0in /  0.0mm
22:54 56.8 °F /  13.8 °C 44.4 °F /  6.9 °C 29.9in /  1013.7hPa OSO 2.6mph /  4.2km/h 4.7mph /  7.6km/h 63% 0in /  0.0mm
22:59 56.8 °F /  13.8 °C 44.4 °F /  6.9 °C 29.9in /  1013.7hPa OSO 2.4mph /  3.9km/h 5mph /  8km/h 63% 0in /  0.0mm
23:04 57 °F /  13.9 °C 44.2 °F /  6.8 °C 29.9in /  1013.7hPa OSO 2.8mph /  4.5km/h 5mph /  8km/h 62.2% 0in /  0.0mm
23:09 57.6 °F /  14.2 °C 44.6 °F /  7 °C 29.9in /  1013.9hPa SSE 2.9mph /  4.7km/h 5.9mph /  9.5km/h 62% 0in /  0.0mm
23:14 57.6 °F /  14.2 °C 44.6 °F /  7 °C 29.9in /  1013.9hPa SE 3.4mph /  5.4km/h 7.4mph /  11.9km/h 62% 0in /  0.0mm
23:19 56.8 °F /  13.8 °C 44.4 °F /  6.9 °C 29.9in /  1013.9hPa SE 3.6mph /  5.8km/h 7.4mph /  11.9km/h 62.8% 0in /  0.0mm
23:24 56.3 °F /  13.5 °C 44.2 °F /  6.8 °C 29.9in /  1013.9hPa SE 4.3mph /  7km/h 8.1mph /  13km/h 63.8% 0in /  0.0mm
23:29 55.9 °F /  13.3 °C 44.1 °F /  6.7 °C 29.9in /  1013.9hPa SSE 4.7mph /  7.6km/h 9.2mph /  14.8km/h 64.1% 0in /  0.0mm
23:34 55.8 °F /  13.2 °C 43.9 °F /  6.6 °C 29.9in /  1013.9hPa Sur 5.2mph /  8.3km/h 9mph /  14.5km/h 64.2% 0in /  0.0mm
23:39 55.8 °F /  13.2 °C 43.9 °F /  6.6 °C 29.9in /  1014.0hPa Sur 5.4mph /  8.7km/h 8mph /  12.9km/h 64% 0in /  0.0mm
23:44 55.9 °F /  13.3 °C 44.1 °F /  6.7 °C 29.9in /  1014.0hPa Sur 4.9mph /  7.9km/h 7mph /  11.3km/h 63.9% 0in /  0.0mm
23:49 56.5 °F /  13.6 °C 43.9 °F /  6.6 °C 29.9in /  1014.0hPa Sur 4.7mph /  7.6km/h 7mph /  11.3km/h 62.6% 0in /  0.0mm
23:54 56.8 °F /  13.8 °C 43.9 °F /  6.6 °C 29.9in /  1014.0hPa Sur 3.9mph /  6.3km/h 6mph /  9.7km/h 62% 0in /  0.0mm
23:59 57 °F /  13.9 °C 43.7 °F /  6.5 °C 29.9in /  1014.0hPa Sur 3.6mph /  5.8km/h 5mph /  8km/h 61.1% 0in /  0.0mm
Murcia-Puente Tocinos, España
Compliments of Weather Underground - 3 mb

La estación de MeteoMurcia.com, publica sus datos en los siguientes proyectos:

Weather Underground PWS IMURCIAP2 Meteoclimatic www.awekas.at

W3Counter
Web Analytics